Latest Weather Observations for Essendon Airport

IDV60801

Issued at 11:02 am EST Tuesday 30 August 2016 (issued every 30 minutes, with the page automatically refreshed every 10 minutes)

About weather observations | Map of weather stations | Latest weather observations for VIC | Other Formats
Station Details ID: 086038 Name: ESSENDON AIRPORT Lat: -37.73 Lon: 144.91 Height: 78.4 m
Data from the previous 72 hours. | See also: Recent months at Essendon Airport
Date/Time
EST
Temp
°C
App
Temp
°C
Dew
Point
°C
Rel
Hum
%
Delta-T
°C
Wind Press
QNH
hPa
Press
MSL
hPa
Rain since
9am
mm
Dir  Spd
km/h
Gust
km/h
Spd
kts
Gust
kts
30/11:00am 13.8 8.5 8.4 70 2.7 NNE 26 41 14 22 1019.5 1019.6 0.0
30/10:30am 14.6 10.7 6.9 60 3.8 N 17 26 9 14 1019.7 1019.8 0.0
30/10:00am 14.4 10.4 6.5 59 3.8 NNE 17 26 9 14 1019.9 1020.0 0.0
30/09:30am 13.8 9.4 6.7 62 3.4 NNE 19 26 10 14 1019.7 1019.8 0.0
30/09:00am 13.6 9.2 6.7 63 3.3 NNE 19 30 10 16 1019.8 1019.9 0.0
30/08:30am 13.1 9.1 6.7 65 3.1 N 17 28 9 15 1020.2 1020.3 0.0
30/08:00am 12.3 9.9 6.8 69 2.6 N 9 13 5 7 1020.1 1020.2 0.0
30/07:30am 12.1 9.7 7.2 72 2.4 N 9 19 5 10 1020.2 1020.3 0.0
30/07:00am 11.6 9.7 6.9 73 2.2 NNE 6 7 3 4 1020.8 1020.9 0.0
30/06:30am 11.6 9.5 6.7 72 2.3 NE 7 9 4 5 1020.3 1020.4 0.0
30/06:00am 11.9 9.8 6.8 71 2.4 NNE 7 11 4 6 1020.7 1020.8 0.0
30/05:30am 11.4 9.3 6.5 72 2.3 E 7 9 4 5 1020.1 1020.2 0.0
30/05:00am 11.8 9.7 6.5 70 2.5 NNE 7 11 4 6 1020.3 1020.4 0.0
30/04:30am 12.0 9.1 6.7 70 2.5 NE 11 15 6 8 1019.9 1020.0 0.0
30/04:00am 11.4 8.5 6.7 73 2.2 ENE 11 13 6 7 1019.8 1019.9 0.0
30/03:30am 11.5 9.0 6.4 71 2.4 NE 9 13 5 7 1020.3 1020.4 0.0
30/03:00am 11.8 8.5 6.5 70 2.5 NNE 13 17 7 9 1020.7 1020.8 0.0
30/02:30am 10.3 8.4 6.5 77 1.8 NE 6 13 3 7 1020.9 1021.0 0.0
30/02:00am 10.4 7.9 6.7 78 1.7 NE 9 11 5 6 1021.2 1021.3 0.0
30/01:30am 10.4 8.2 6.4 76 1.9 NE 7 9 4 5 1021.4 1021.5 0.0
30/01:00am 10.4 7.9 6.5 77 1.8 NNE 9 11 5 6 1021.3 1021.4 0.0
30/12:30am 10.3 7.8 6.5 77 1.8 NNE 9 11 5 6 1021.7 1021.8 0.0
30/12:00am 10.8 8.7 6.7 76 1.9 NE 7 9 4 5 1022.1 1022.2 0.0
 
Date/Time
EST
Temp
°C
App
Temp
°C
Dew
Point
°C
Rel
Hum
%
Delta-T
°C
Wind Press
QNH
hPa
Press
MSL
hPa
Rain since
9am
mm
Dir  Spd
km/h
Gust
km/h
Spd
kts
Gust
kts
29/11:30pm 10.5 8.3 6.1 74 2.1 NE 7 7 4 4 1022.3 1022.4 0.0
29/11:00pm 11.5 9.4 6.6 72 2.3 NE 7 9 4 5 1022.6 1022.7 0.0
29/10:30pm 11.6 9.4 6.3 70 2.5 NE 7 11 4 6 1022.5 1022.6 0.0
29/10:00pm 11.6 9.0 5.9 68 2.7 NE 9 11 5 6 1022.6 1022.7 0.0
29/09:30pm 12.8 9.4 5.9 63 3.3 NE 13 19 7 10 1022.5 1022.6 0.0
29/09:00pm 14.0 9.5 6.1 59 3.8 NNE 19 26 10 14 1022.5 1022.6 0.0
29/08:30pm 12.8 9.5 6.2 64 3.1 NE 13 15 7 8 1022.4 1022.5 0.0
29/08:00pm 12.6 9.3 6.2 65 3.0 NE 13 17 7 9 1022.5 1022.6 0.0
29/07:30pm 12.7 10.0 5.4 61 3.4 NE 9 13 5 7 1022.6 1022.7 0.0
29/07:00pm 13.6 10.1 5.5 58 3.8 NNE 13 15 7 8 1022.3 1022.4 0.0
29/06:30pm 14.2 10.7 5.6 56 4.1 NNE 13 17 7 9 1021.9 1022.0 0.0
29/06:00pm 15.0 11.1 5.5 53 4.5 NNE 15 20 8 11 1021.7 1021.8 0.0
29/05:30pm 16.1 11.4 5.1 48 5.2 NNE 19 28 10 15 1021.5 1021.6 0.0
29/05:00pm 16.8 11.5 5.1 46 5.6 NNE 22 33 12 18 1021.5 1021.6 0.0
29/04:30pm 17.3 10.2 3.6 40 6.4 N 30 41 16 22 1021.6 1021.7 0.0
29/04:00pm 17.8 11.6 4.4 41 6.4 N 26 35 14 19 1021.8 1021.9 0.0
29/03:30pm 17.8 10.8 4.0 40 6.5 N 30 41 16 22 1021.8 1021.9 0.0
29/03:00pm 18.7 12.4 3.7 37 7.1 N 26 35 14 19 1021.6 1021.7 0.0
29/02:30pm 18.3 10.9 3.8 38 6.8 N 32 41 17 22 1021.5 1021.6 0.0
29/02:22pm 18.2 11.4 3.3 37 7.0 N 28 46 15 25 1021.6 1021.7 0.0
29/02:00pm 18.5 11.7 5.0 41 6.5 N 30 41 16 22 1022.0 1022.1 0.0
29/01:42pm 18.4 11.9 4.6 40 6.6 N 28 46 15 25 1022.1 1022.2 0.0
29/01:30pm 18.5 11.8 5.7 43 6.3 N 30 41 16 22 1022.2 1022.3 0.0
29/01:16pm 18.2 11.5 5.8 44 6.1 NNE 30 48 16 26 1022.4 1022.5 0.0
29/01:00pm 18.2 12.0 6.1 45 6.0 NNE 28 43 15 23 1022.6 1022.7 0.0
29/12:31pm 17.8 11.8 7.0 49 5.4 N 28 46 15 25 1022.9 1023.0 0.0
29/12:30pm 17.8 12.1 6.7 48 5.5 N 26 46 14 25 1022.9 1023.0 0.0
29/12:27pm 17.6 11.3 5.5 45 5.9 N 28 46 15 25 1022.8 1022.9 0.0
29/12:00pm 17.5 11.7 6.4 48 5.5 N 26 37 14 20 1023.3 1023.4 0.0
29/11:30am 15.6 11.5 6.1 53 4.6 N 17 30 9 16 1023.6 1023.7 0.0
29/11:00am 14.9 10.4 6.0 55 4.3 N 19 30 10 16 1024.1 1024.2 0.0
29/10:30am 15.7 11.9 7.5 58 4.1 N 17 22 9 12 1024.3 1024.4 0.0
29/10:00am 13.5 9.7 7.7 68 2.8 N 17 26 9 14 1024.6 1024.7 0.0
29/09:30am 12.6 8.0 6.4 66 3.0 N 20 32 11 17 1024.8 1024.9 0.0
29/09:00am 13.3 7.9 6.4 63 3.3 N 24 33 13 18 1024.7 1024.8 0.0
29/08:30am 12.5 7.5 6.5 67 2.9 N 22 32 12 17 1024.5 1024.6 0.0
29/08:00am 11.6 6.6 6.3 70 2.5 NNE 22 35 12 19 1024.1 1024.2 0.0
29/07:30am 10.7 7.0 6.1 73 2.1 NNE 15 20 8 11 1023.8 1023.9 0.0
29/07:00am 10.1 6.7 5.9 75 1.9 NNE 13 24 7 13 1023.2 1023.3 0.0
29/06:30am 10.2 6.0 5.8 74 2.0 N 17 26 9 14 1022.8 1022.9 0.0
29/06:00am 10.1 6.0 6.1 76 1.8 NNE 17 28 9 15 1022.5 1022.6 0.0
29/05:30am 8.1 5.3 5.0 81 1.4 ENE 9 13 5 7 1022.5 1022.6 0.0
29/05:00am 9.2 6.4 5.2 76 1.8 E 9 15 5 8 1022.2 1022.3 0.0
29/04:30am 8.9 6.6 5.5 79 1.5 ENE 7 13 4 7 1021.9 1022.0 0.0
29/04:00am 9.3 6.1 5.3 76 1.8 NE 11 17 6 9 1021.8 1021.9 0.0
29/03:30am 9.5 5.5 5.1 74 2.0 NNE 15 20 8 11 1021.8 1021.9 0.0
29/03:00am 9.9 6.8 5.5 74 2.0 NNE 11 17 6 9 1022.1 1022.2 0.0
29/02:30am 9.8 6.3 5.4 74 2.0 NNE 13 20 7 11 1022.0 1022.1 0.0
29/02:00am 9.8 6.0 6.0 77 1.7 N 15 20 8 11 1022.3 1022.4 0.0
29/01:30am 10.4 5.8 6.4 76 1.9 N 20 26 11 14 1022.3 1022.4 0.0
29/01:00am 10.7 6.3 6.5 75 2.0 N 19 26 10 14 1022.2 1022.3 0.0
29/12:30am 10.7 6.1 6.5 75 2.0 N 20 28 11 15 1022.2 1022.3 0.0
29/12:00am 11.2 6.2 6.5 73 2.2 N 22 28 12 15 1022.0 1022.1 0.0
 
Date/Time
EST
Temp
°C
App
Temp
°C
Dew
Point
°C
Rel
Hum
%
Delta-T
°C
Wind Press
QNH
hPa
Press
MSL
hPa
Rain since
9am
mm
Dir  Spd
km/h
Gust
km/h
Spd
kts
Gust
kts
28/11:30pm 11.5 7.2 6.8 73 2.2 N 19 24 10 13 1021.9 1022.0 0.0
28/11:00pm 11.4 7.5 6.9 74 2.1 NNW 17 26 9 14 1021.9 1022.0 0.0
28/10:30pm 11.2 6.7 6.9 75 2.1 NNW 20 26 11 14 1021.9 1022.0 0.0
28/10:00pm 11.4 6.5 7.1 75 2.1 N 22 32 12 17 1021.8 1021.9 0.0
28/09:30pm 11.5 7.1 7.2 75 2.1 N 20 26 11 14 1021.7 1021.8 0.0
28/09:00pm 11.8 7.0 7.5 75 2.1 N 22 30 12 16 1021.4 1021.5 0.0
28/08:30pm 12.0 7.6 7.3 73 2.3 N 20 30 11 16 1021.2 1021.3 0.0
28/08:00pm 12.4 8.0 7.5 72 2.4 N 20 28 11 15 1020.9 1021.0 0.0
28/07:30pm 12.7 8.3 7.6 71 2.5 N 20 30 11 16 1020.6 1020.7 0.0
28/07:00pm 13.0 8.7 7.2 68 2.8 N 19 28 10 15 1020.4 1020.5 0.0
28/06:30pm 13.4 9.1 7.2 66 3.0 N 19 24 10 13 1020.1 1020.2 0.0
28/06:00pm 14.0 9.6 7.3 64 3.3 N 20 26 11 14 1019.7 1019.8 0.0
28/05:30pm 14.8 10.4 7.6 62 3.6 N 20 28 11 15 1019.4 1019.5 0.0
28/05:00pm 15.2 10.9 7.7 61 3.7 N 20 32 11 17 1019.3 1019.4 0.0
28/04:30pm 16.8 14.8 6.9 52 4.9 N 7 19 4 10 1019.2 1019.3 0.0
28/04:00pm 16.9 13.9 6.1 49 5.3 S 11 15 6 8 1019.1 1019.2 0.0
28/03:30pm 17.0 13.9 5.6 47 5.5 WNW 11 24 6 13 1019.0 1019.1 0.0
28/03:00pm 16.6 12.7 7.3 54 4.6 NNE 17 22 9 12 1018.9 1019.0 0.0
28/02:30pm 16.9 12.5 6.4 50 5.2 N 19 26 10 14 1018.8 1018.9 0.0
28/02:00pm 17.3 13.3 8.4 56 4.6 N 19 24 10 13 1019.0 1019.1 0.0
28/01:30pm 16.2 11.8 7.4 56 4.4 N 20 28 11 15 1019.1 1019.2 0.0
28/01:00pm 16.6 12.0 6.4 51 5.0 N 20 30 11 16 1019.3 1019.4 0.0
28/12:30pm 16.2 11.1 6.1 51 4.9 N 22 30 12 16 1019.7 1019.8 0.0
28/12:00pm 15.7 11.3 7.2 57 4.2 N 20 30 11 16 1020.2 1020.3 0.0
28/11:30am 13.4 7.8 5.3 58 3.8 N 24 32 13 17 1020.4 1020.5 0.0
28/11:00am 13.4 8.7 6.0 61 3.5 N 20 28 11 15 1020.4 1020.5 0.0
28/10:30am 12.4 7.3 5.8 64 3.1 N 22 30 12 16 1020.4 1020.5 0.0
28/10:00am 11.6 5.9 5.0 64 3.0 N 24 30 13 16 1020.4 1020.5 0.0
28/09:30am 10.9 5.5 4.6 65 2.8 N 22 32 12 17 1020.4 1020.5 0.0
28/09:00am 10.2 4.4 4.4 67 2.6 N 24 32 13 17 1020.4 1020.5 0.0
28/08:30am 9.6 4.2 4.4 70 2.3 N 22 32 12 17 1020.4 1020.5 0.0
28/08:00am 9.6 4.1 4.0 68 2.5 N 22 32 12 17 1020.0 1020.1 0.0
28/07:30am 9.6 4.4 3.8 67 2.5 N 20 28 11 15 1019.8 1019.9 0.0
28/07:00am 9.3 3.7 3.7 68 2.4 N 22 30 12 16 1019.6 1019.7 0.0
28/06:30am 9.7 4.2 3.9 67 2.6 N 22 30 12 16 1019.3 1019.4 0.0
28/06:00am 9.7 3.8 3.9 67 2.5 N 24 33 13 18 1019.0 1019.1 0.0
28/05:30am 9.6 3.7 3.8 67 2.5 N 24 39 13 21 1018.8 1018.9 0.0
28/05:00am 9.4 3.5 3.8 68 2.4 N 24 33 13 18 1018.6 1018.7 0.0
28/04:30am 9.9 4.0 3.9 66 2.6 N 24 33 13 18 1018.6 1018.7 0.0
28/04:00am 9.8 3.5 4.0 67 2.6 N 26 35 14 19 1018.2 1018.3 0.0
28/03:30am 9.9 3.3 4.1 67 2.6 NNW 28 39 15 21 1018.3 1018.4 0.0
28/03:00am 10.2 3.2 4.1 66 2.7 N 30 41 16 22 1017.9 1018.0 0.0
28/02:30am 10.3 3.3 4.0 65 2.8 N 30 41 16 22 1018.3 1018.4 0.0
28/02:00am 10.2 4.4 4.4 67 2.6 N 24 32 13 17 1018.6 1018.7 0.0
28/01:30am 10.2 4.8 4.6 68 2.5 N 22 30 12 16 1018.9 1019.0 0.0
28/01:00am 10.3 5.3 4.7 68 2.5 N 20 32 11 17 1019.1 1019.2 0.0
28/12:30am 10.3 5.4 4.9 69 2.4 N 20 32 11 17 1019.1 1019.2 0.0
28/12:00am 10.6 4.9 4.9 68 2.6 N 24 33 13 18 1019.2 1019.3 0.0
 
Date/Time
EST
Temp
°C
App
Temp
°C
Dew
Point
°C
Rel
Hum
%
Delta-T
°C
Wind Press
QNH
hPa
Press
MSL
hPa
Rain since
9am
mm
Dir  Spd
km/h
Gust
km/h
Spd
kts
Gust
kts
27/11:30pm 10.6 5.0 5.2 69 2.5 N 24 32 13 17 1019.1 1019.2 0.0
27/11:00pm 10.7 5.1 5.3 69 2.5 N 24 37 13 20 1019.2 1019.3 0.0
27/10:30pm 10.5 5.6 5.1 69 2.5 N 20 28 11 15 1019.7 1019.8 0.0
27/10:00pm 10.6 5.7 5.2 69 2.5 N 20 28 11 15 1019.8 1019.9 0.0
27/09:30pm 10.6 5.8 4.9 68 2.6 N 19 28 10 15 1020.2 1020.3 0.0
27/09:00pm 10.9 6.1 4.8 66 2.8 N 19 26 10 14 1020.4 1020.5 0.0
27/08:30pm 10.8 6.4 4.7 66 2.8 N 17 26 9 14 1020.1 1020.2 0.0
27/08:00pm 10.8 6.8 4.7 66 2.8 N 15 20 8 11 1020.0 1020.1 0.0
27/07:30pm 10.7 6.6 4.6 66 2.8 N 15 20 8 11 1020.0 1020.1 0.0
27/07:00pm 11.1 7.4 4.3 63 3.0 NNW 13 20 7 11 1019.7 1019.8 0.0
27/06:30pm 12.0 6.9 4.2 59 3.5 NNW 20 26 11 14 1019.2 1019.3 0.0
27/06:00pm 12.1 7.7 4.6 60 3.4 N 17 22 9 12 1018.9 1019.0 0.0
27/05:30pm 12.4 7.4 4.4 58 3.6 N 20 32 11 17 1018.8 1018.9 0.0
27/05:00pm 12.9 7.5 4.3 56 3.9 N 22 32 12 17 1018.6 1018.7 0.0
27/04:30pm 13.2 7.8 4.4 55 4.0 N 22 32 12 17 1018.3 1018.4 0.0
27/04:00pm 13.5 6.8 3.6 51 4.5 NNW 28 43 15 23 1018.2 1018.3 0.0
27/03:30pm 14.1 7.8 3.6 49 4.8 NNW 26 39 14 21 1018.6 1018.7 0.0
27/03:00pm 14.7 8.1 4.4 50 4.8 NNW 28 37 15 20 1018.5 1018.6 0.0
27/02:30pm 15.4 9.4 5.3 51 4.8 NNW 26 43 14 23 1019.0 1019.1 0.0
27/02:00pm 14.0 8.1 3.8 50 4.6 NNW 24 35 13 19 1019.2 1019.3 0.0
27/01:30pm 14.3 7.5 3.2 47 5.0 NNW 28 39 15 21 1019.4 1019.5 0.0
27/01:00pm 14.6 8.2 3.4 47 5.1 NNW 26 37 14 20 1019.8 1019.9 0.0
27/12:30pm 14.5 7.8 3.9 49 4.9 NNW 28 39 15 21 1020.5 1020.6 0.0
27/12:00pm 13.5 7.6 3.8 52 4.4 NW 24 33 13 18 1021.2 1021.3 0.0
27/11:30am 13.2 7.3 4.1 54 4.1 NW 24 33 13 18 1021.8 1021.9 0.0

Other Formats:

Comma delimited format used in spreadsheet applications
http://www.bom.gov.au/fwo/IDV60801/IDV60801.95866.axf

JavaScript Object Notation format (JSON) in row-major order
http://www.bom.gov.au/fwo/IDV60801/IDV60801.95866.json